Aeroporto :
LOGIN :

Iscrizione | Disclaimer

   EN    FR    IT 

 










Sommario :    VFR   VFR Marginale   IFR   IFR Intensivo   IFR Molto Intensivo
Visibilità : 
Base nubi : 
>= 8 km
>= 3000ft
5 / 8 km
1000 / 3000 ft
1500m / 5 km
500 / 1000 ft
800 / 1500m
200 / 500 ft
< 800m
< 200 ft
Simboli :   Temporali  Nebbia  Neve Forte  Precipitazioni Forti  Vento > 20 kt
SIGMETs :   Varie  Temporali  Ghiacco  Turbolenza  Onda orograficha  Ceneri Vulcaniche







- Altitudine del aeroporto : 154 ft
- Codice IATA : SZZ


EPSC - Szczecin Goleniow

ULTIMO METAR :
  • 191400Z 08008KT 9999 FEW005 17/14 Q1006

METARs OBSOLETI :
  • 191330Z 09011KT 9999 -SHRA FEW009 SCT050CB 18/14 Q1007
  • 191300Z 11012G24KT 070V140 9999 FEW039CB 20/12 Q1007
  • 191230Z 09008KT CAVOK 23/12 Q1006
  • 191200Z 10006KT CAVOK 23/13 Q1006
  • 191130Z 10006KT 060V140 CAVOK 23/11 Q1006

TAF TAF EPSC
Valido dal 19 a 12 ore il 20 a 12 ore UTC


191130Z 1912/2012 08010KT 9999 SCT035
TEMPO 1912/1924 VRB15G25KT 3000 TSRA SCT008 BKN020CB
BECMG 1921/1923 VRB02KT
PROB40 1921/2006 1500 BR BKN003
Nessun NOTAM noto per questo aeroporto.
1 SIGMET conosciuto per la FIR Warszawa (EPWW) :
 
Temporali frequenti
EPWW SIGMET 1 VALID 191215/191615 EPWA
EPWW WARSAW FIR FRQ TS OBS S OF N51 AND E OF E018 TOP ABV FL320 MOV NW INTSF=



MetMap, La meteo Aeronautica in un colpo d'occhio ! - Copyright ORBIFLY Dicembre 2007 - Disclaimer

ORBIFLY MET'MAP TEAM :

Programmazione e sviluppo : Alexandra Zaïnal
Concezione e sviluppo : Baudouin d'Aumeries
Co-Programmazione e sviluppo : Marc-Olivier Méhu
Supporto tecnico e logistico : Manuel Goepfert
Aiuto per la traduzione : Arnaldo La Scala

Contatto : metmap@orbifly.com




FONTI E CREDITI :

   NOAA